Weather at Ralph Fulmer Field

Public forecast

Using degrees Fahrenheit for public forecast. Weather courtesy of forecast.io.

Closest aviation weather report (METAR) to Ralph Fulmer Field

Closest report is Little Rock Air Force Base, 11.6 nm (21.4 km) W. Retrieved 2020/09/24 20:36 UTC (0 seconds ago):

KLRF 242036Z AUTO 33004KT 10SM OVC015 20/17 A2990 RMK AO2 SLP126

Closest aviation forecast (TAF) to Ralph Fulmer Field

Closest forecast is Little Rock Air Force Base, 11.6 nm (21.4 km) W. Retrieved 2020/09/24 15:09 UTC (5 hours ago):

TAF TAF KLRF 241504Z 2415/2521 02010G15KT 9999 BKN005 OVC090 QNH2991INS BECMG 2416/2417 02012KT 9999 BKN015 QNH2987INS BECMG 2500/2501 VRB06KT 9999 BKN015 QNH2989INS BECMG 2502/2503 03006KT 9999 SCT020 QNH2990INS BECMG 2505/2506 01006KT 9999 BKN010 QNH2990INS BECMG 2508/2509 33004KT 9999 BKN015 QNH2992INS BECMG 2514/2515 31004KT 9999 SCT010 BKN020 QNH2992INS BECMG 2517/2518 29002KT 9999 SCT025 QNH2999INS TX20/2420Z TN15/2509Z